Time;durP1;ratioP1;P1;durP2;ratioP2;P2;SDS_P1;SDS_P2;PMS_P1;PMS_P2;Temp;Humidity;BMP_temperature;BMP_pressure;BME280_temperature;BME280_humidity;BME280_pressure;Samples;Min_cycle;Max_cycle;Signal;HPM_P1;HPM_P2
2023/10/05 00:00:57;;;;;;;18.90;11.50;;;;;;;8.60;83.57;99682.35;225321;1275;138661;-73
2023/10/05 00:06:14;;;;;;;17.30;11.30;;;;;;;8.57;83.71;99679.79;225508;1283;138678;-74
2023/10/05 00:18:07;;;;;;;15.40;10.50;;;;;;;8.56;83.83;99671.88;225533;1283;25574;-73
2023/10/05 00:24:00;;;;;;;13.80;10.20;;;;;;;8.58;83.65;99664.05;225502;1283;22575;-74
2023/10/05 00:30:07;;;;;;;;;;;;;;;;;;;;;
2023/10/05 00:35:49;;;;;;;15.20;9.90;;;;;;;8.63;84.17;99657.88;225406;1282;22539;-74
2023/10/05 00:41:07;;;;;;;16.40;9.70;;;;;;;8.64;83.76;99651.12;225083;1286;138378;-73
2023/10/05 00:46:48;;;;;;;;;;;;;;;;;;;;;
2023/10/05 00:58:21;;;;;;;16.20;12.80;;;;;;;8.64;83.82;99646.23;225067;1285;138530;-73
2023/10/05 01:15:34;;;;;;;17.30;10.20;;;;;;;8.60;84.17;99634.34;225317;1281;138777;-73
2023/10/05 01:22:20;;;;;;;13.50;9.60;;;;;;;8.61;84.13;99621.95;224707;1287;138610;-74
2023/10/05 01:27:47;;;;;;;16.80;9.50;;;;;;;8.63;83.94;99613.33;224826;1276;138547;-74
2023/10/05 01:39:30;;;;;;;;;;;;;;;;;;;;;
2023/10/05 01:44:41;;;;;;;14.50;9.50;;;;;;;8.70;84.27;99600.31;225465;1283;138778;-74
2023/10/05 01:49:54;;;;;;;16.80;9.50;;;;;;;8.69;84.63;99597.65;225294;1283;138608;-74
2023/10/05 01:55:06;;;;;;;15.50;10.10;;;;;;;8.68;84.75;99601.75;225317;1283;138410;-75
2023/10/05 02:00:15;;;;;;;14.60;9.50;;;;;;;8.67;84.37;99596.87;225408;1283;22548;-75
2023/10/05 02:05:23;;;;;;;16.50;10.20;;;;;;;8.67;84.49;99588.51;225407;1283;22985;-74
2023/10/05 02:11:00;;;;;;;16.70;9.70;;;;;;;8.67;84.71;99587.79;225268;1283;138482;-73
2023/10/05 02:16:28;;;;;;;16.40;9.90;;;;;;;8.67;84.57;99584.29;225254;1283;138336;-75
2023/10/05 02:21:57;;;;;;;15.50;9.80;;;;;;;8.68;84.79;99581.59;225250;1283;138633;-74
2023/10/05 02:32:58;;;;;;;15.10;8.00;;;;;;;8.69;84.61;99581.11;224774;1288;138546;-74
2023/10/05 02:38:45;;;;;;;;;;;;;;;;;;;;;
2023/10/05 02:43:52;;;;;;;9.90;6.60;;;;;;;8.67;84.45;99579.71;224756;1288;138562;-74
2023/10/05 02:48:56;;;;;;;10.30;6.60;;;;;;;8.63;84.70;99574.48;225074;1282;138558;-75
2023/10/05 02:54:36;;;;;;;9.60;6.30;;;;;;;8.58;84.74;99570.63;225379;1283;138380;-74
2023/10/05 02:59:40;;;;;;;9.80;6.50;;;;;;;8.53;84.88;99569.27;225550;1282;22547;-74
2023/10/05 03:05:14;;;;;;;9.80;6.30;;;;;;;8.45;84.73;99560.36;224753;1288;138267;-74
2023/10/05 03:10:23;;;;;;;10.60;6.60;;;;;;;8.38;84.76;99555.27;224812;1289;138482;-74
2023/10/05 03:15:50;;;;;;;9.50;6.50;;;;;;;8.31;84.52;99554.56;224773;1285;138584;-75
2023/10/05 03:21:12;;;;;;;12.50;8.20;;;;;;;8.23;84.89;99558.17;225090;1283;138575;-75
2023/10/05 03:26:39;;;;;;;13.40;7.40;;;;;;;8.16;84.77;99558.55;225363;1282;138529;-74
2023/10/05 03:31:57;;;;;;;10.70;7.20;;;;;;;8.08;84.94;99561.09;224792;1288;138605;-75
2023/10/05 03:42:55;;;;;;;;;;;;;;;;;;;;;
2023/10/05 03:48:42;;;;;;;9.10;6.50;;;;;;;7.91;85.66;99569.96;224791;1289;124584;-74
2023/10/05 03:54:08;;;;;;;12.50;7.30;;;;;;;7.91;85.80;99571.70;224814;1288;24207;-74
2023/10/05 04:00:40;;;;;;;12.40;7.10;;;;;;;7.91;85.87;99568.11;224819;1283;138075;-74
2023/10/05 04:05:53;;;;;;;;;;;;;;;;;;;;;
2023/10/05 04:11:36;;;;;;;10.10;7.20;;;;;;;7.85;85.48;99562.55;225230;1283;22571;-75
2023/10/05 04:16:54;;;;;;;12.00;7.50;;;;;;;7.80;85.80;99562.67;225104;1283;138238;-75
2023/10/05 04:21:59;;;;;;;9.90;7.30;;;;;;;7.75;85.85;99566.85;225295;1283;138078;-74
2023/10/05 04:27:07;;;;;;;13.60;7.80;;;;;;;7.70;85.84;99561.77;225333;1283;138037;-74
2023/10/05 04:32:21;;;;;;;12.40;8.20;;;;;;;7.64;86.03;99551.58;225274;1282;138378;-75
2023/10/05 04:43:45;;;;;;;10.20;7.30;;;;;;;7.47;86.00;99524.02;225360;1283;138341;-75
2023/10/05 04:50:15;;;;;;;12.60;7.80;;;;;;;7.38;86.05;99510.73;225381;1282;138422;-74
2023/10/05 04:55:53;;;;;;;14.50;7.50;;;;;;;7.36;86.36;99507.95;225077;1282;138346;-75
2023/10/05 05:06:29;;;;;;;;;;;;;;;;;;;;;
2023/10/05 05:12:10;;;;;;;12.90;8.60;;;;;;;7.49;86.80;99531.02;225385;1282;22554;-74
2023/10/05 05:18:07;;;;;;;;;;;;;;;;;;;;;
2023/10/05 05:23:34;;;;;;;13.60;8.30;;;;;;;7.63;86.57;99522.98;225160;1283;137880;-75
2023/10/05 05:29:25;;;;;;;12.80;7.90;;;;;;;7.71;86.98;99519.19;225314;1282;138287;-75
2023/10/05 05:34:11;;;;;;;13.40;8.50;;;;;;;7.84;86.64;99515.14;225208;1283;138165;-75
2023/10/05 05:39:42;;;;;;;14.50;8.60;;;;;;;7.95;87.16;99518.17;225276;1282;138229;-75
2023/10/05 05:45:06;;;;;;;12.10;8.60;;;;;;;8.11;87.00;99522.05;225403;1283;138357;-75
2023/10/05 05:50:39;;;;;;;12.70;8.50;;;;;;;8.24;86.85;99514.75;225232;1279;138509;-74
2023/10/05 05:55:57;;;;;;;14.50;8.80;;;;;;;8.38;86.95;99515.48;224916;1281;138507;-73
2023/10/05 06:00:59;;;;;;;15.30;10.40;;;;;;;8.51;86.75;99522.50;225142;1271;140687;-76
2023/10/05 06:06:03;;;;;;;14.90;9.30;;;;;;;8.65;86.40;99519.18;224824;1268;22544;-75
2023/10/05 06:11:13;;;;;;;10.20;7.70;;;;;;;8.81;86.68;99515.93;224744;1267;138198;-76
2023/10/05 06:16:21;;;;;;;10.90;8.00;;;;;;;9.01;86.37;99520.12;224851;1259;138263;-77
2023/10/05 06:21:39;;;;;;;12.00;7.60;;;;;;;9.29;86.41;99509.62;224787;1275;138586;-74
2023/10/05 06:26:55;;;;;;;12.60;8.40;;;;;;;9.63;86.21;99505.28;224856;1263;138444;-76
2023/10/05 06:32:21;;;;;;;10.80;7.10;;;;;;;9.98;86.11;99507.83;224767;1261;138486;-75
2023/10/05 06:37:41;;;;;;;11.00;6.70;;;;;;;10.31;85.53;99512.54;224682;1259;138632;-78
2023/10/05 06:43:17;;;;;;;;;;;;;;;;;;;;;
2023/10/05 06:48:44;;;;;;;9.70;5.50;;;;;;;10.79;84.43;99518.27;224885;1263;22541;-75
2023/10/05 06:54:07;;;;;;;8.00;4.70;;;;;;;11.06;84.04;99524.44;224766;1271;22558;-76
2023/10/05 06:59:31;;;;;;;6.30;4.40;;;;;;;11.30;83.56;99524.80;224776;1264;138342;-76
2023/10/05 07:05:18;;;;;;;;;;;;;;;;;;;;;
2023/10/05 07:11:06;;;;;;;7.10;3.70;;;;;;;11.59;82.42;99524.29;224808;1270;138518;-75
2023/10/05 07:16:15;;;;;;;6.50;3.70;;;;;;;11.63;82.09;99525.22;224724;1263;138877;-71
2023/10/05 07:21:41;;;;;;;7.50;3.40;;;;;;;11.73;81.86;99528.96;224913;1275;138433;-74
2023/10/05 07:27:14;;;;;;;8.20;3.80;;;;;;;11.84;81.54;99532.21;224983;1275;138573;-76
2023/10/05 07:33:37;;;;;;;;;;;;;;;;;;;;;
2023/10/05 07:38:53;;;;;;;4.80;3.10;;;;;;;12.19;80.97;99528.44;225173;1264;138442;-78
2023/10/05 07:45:43;;;;;;;7.50;2.90;;;;;;;12.42;80.38;99527.30;225042;1267;138423;-77
2023/10/05 07:52:11;;;;;;;4.70;3.00;;;;;;;12.66;79.52;99517.48;224617;1275;138434;-82
2023/10/05 07:57:48;;;;;;;;;;;;;;;;;;;;;
2023/10/05 08:03:45;;;;;;;4.50;2.30;;;;;;;13.17;78.80;99509.80;224942;1263;138620;-77
2023/10/05 08:09:24;;;;;;;3.90;2.10;;;;;;;13.45;78.16;99502.09;224866;1264;138474;-75
2023/10/05 08:15:07;;;;;;;2.80;1.90;;;;;;;13.75;77.22;99498.16;224959;1271;138535;-77
2023/10/05 08:20:35;;;;;;;3.60;1.90;;;;;;;14.00;76.86;99506.48;225173;1279;138422;-78
2023/10/05 08:25:38;;;;;;;5.40;2.30;;;;;;;14.22;75.47;99504.77;224728;1278;138483;-77
2023/10/05 08:31:13;;;;;;;4.30;2.40;;;;;;;14.38;74.85;99506.16;224845;1277;138533;-77
2023/10/05 08:37:02;;;;;;;6.40;2.50;;;;;;;14.57;74.76;99507.48;225027;1273;22543;-74
2023/10/05 08:42:07;;;;;;;5.00;2.40;;;;;;;14.83;74.20;99504.55;225144;1265;22555;-75
2023/10/05 08:47:52;;;;;;;9.40;3.00;;;;;;;15.02;73.88;99506.27;225060;1275;138334;-77
2023/10/05 08:54:40;;;;;;;8.20;2.30;;;;;;;15.23;73.26;99494.63;225276;1274;138379;-77
2023/10/05 08:59:38;;;;;;;;;;;;;;;;;;;;;
2023/10/05 09:05:50;;;;;;;;;;;;;;;;;;;;;
2023/10/05 09:12:16;;;;;;;4.70;2.10;;;;;;;15.79;71.66;99484.77;225181;1275;22558;-80
2023/10/05 09:18:42;;;;;;;6.50;2.40;;;;;;;15.96;70.08;99488.17;225211;1262;138156;-77
2023/10/05 09:24:02;;;;;;;;;;;;;;;;;;;;;
2023/10/05 09:29:36;;;;;;;6.40;1.70;;;;;;;16.20;68.75;99480.98;225061;1275;137802;-77
2023/10/05 09:35:14;;;;;;;5.70;1.80;;;;;;;16.27;67.82;99481.60;225152;1275;139640;-78
2023/10/05 09:41:13;;;;;;;3.90;2.10;;;;;;;16.30;67.09;99475.11;225042;1274;137644;-79
2023/10/05 09:47:35;;;;;;;;;;;;;;;;;;;;;
2023/10/05 09:53:53;;;;;;;6.90;1.90;;;;;;;16.57;67.30;99463.71;224945;1273;137768;-77
2023/10/05 09:58:59;;;;;;;3.60;1.80;;;;;;;16.71;66.70;99462.35;225070;1274;137686;-78
2023/10/05 10:05:25;;;;;;;3.50;1.90;;;;;;;16.78;66.57;99454.56;224951;1275;138053;-77
2023/10/05 10:10:38;;;;;;;4.00;1.80;;;;;;;16.85;65.53;99445.91;224854;1262;137857;-76
2023/10/05 10:16:14;;;;;;;4.10;1.70;;;;;;;16.93;65.12;99447.60;225232;1268;137810;-77
2023/10/05 10:22:46;;;;;;;4.30;2.00;;;;;;;17.04;65.08;99446.53;225117;1278;137758;-77
2023/10/05 10:35:05;;;;;;;;;;;;;;;;;;;;;
2023/10/05 10:41:32;;;;;;;;;;;;;;;;;;;;;
2023/10/05 10:47:45;;;;;;;;;;;;;;;;;;;;;
2023/10/05 10:54:14;;;;;;;1.90;1.30;;;;;;;17.94;63.17;99423.42;225167;1279;138049;-77
2023/10/05 11:00:02;;;;;;;;;;;;;;;;;;;;;
2023/10/05 11:05:41;;;;;;;3.60;1.60;;;;;;;17.81;62.65;99424.77;225077;1281;137884;-77
2023/10/05 11:11:45;;;;;;;3.30;1.80;;;;;;;17.66;62.38;99410.45;225052;1265;137643;-77
2023/10/05 11:17:27;;;;;;;8.30;2.10;;;;;;;17.60;61.95;99411.92;225105;1274;137645;-77
2023/10/05 11:23:12;;;;;;;3.00;1.60;;;;;;;17.62;61.38;99411.55;225103;1274;138092;-79
2023/10/05 11:29:38;;;;;;;;;;;;;;;;;;;;;
2023/10/05 11:36:27;;;;;;;;;;;;;;;;;;;;;
2023/10/05 11:42:44;;;;;;;;;;;;;;;;;;;;;
2023/10/05 11:49:13;;;;;;;3.80;2.50;;;;;;;18.48;59.80;99375.08;224591;1287;22652;-82
2023/10/05 12:10:23;;;;;;;9.20;2.10;;;;;;;18.22;57.86;99365.50;225120;1277;137751;-82
2023/10/05 12:15:49;;;;;;;4.70;2.30;;;;;;;18.17;57.95;99349.10;224928;1274;137722;-80
2023/10/05 12:22:16;;;;;;;;;;;;;;;;;;;;;
2023/10/05 12:29:13;;;;;;;4.50;2.40;;;;;;;18.57;56.54;99350.14;225105;1275;138197;-81
2023/10/05 12:35:43;;;;;;;6.40;2.80;;;;;;;18.59;56.58;99343.25;224799;1279;137973;-84
2023/10/05 12:42:24;;;;;;;4.40;2.80;;;;;;;18.94;57.52;99349.00;224623;1284;138095;-83
2023/10/05 12:48:40;;;;;;;5.10;3.00;;;;;;;19.11;56.41;99361.04;224240;1288;22520;-80
2023/10/05 12:54:43;;;;;;;8.40;3.60;;;;;;;19.10;56.25;99361.01;224296;1288;22556;-80
2023/10/05 13:08:11;;;;;;;;;;;;;;;;;;;;;
2023/10/05 13:14:10;;;;;;;7.10;3.40;;;;;;;19.17;57.12;99361.22;225045;1275;137783;-79
2023/10/05 13:40:28;;;;;;;;;;;;;;;;;;;;;
2023/10/05 13:47:15;;;;;;;6.80;3.50;;;;;;;18.93;57.36;99343.95;224934;1282;138086;-82
2023/10/05 13:53:57;;;;;;;;;;;;;;;;;;;;;
2023/10/05 13:59:46;;;;;;;5.90;3.70;;;;;;;18.37;57.78;99340.41;225245;1280;136963;-82
2023/10/05 14:06:31;;;;;;;7.30;3.60;;;;;;;18.03;58.11;99334.19;225054;1281;137543;-77
2023/10/05 14:12:51;;;;;;;6.70;3.40;;;;;;;17.83;59.00;99338.39;225315;1281;137555;-77
2023/10/05 14:19:29;;;;;;;;;;;;;;;;;;;;;
2023/10/05 14:25:23;;;;;;;5.80;3.60;;;;;;;17.73;59.07;99336.02;225648;1281;22552;-77
2023/10/05 14:31:22;;;;;;;;;;;;;;;;;;;;;
2023/10/05 14:36:59;;;;;;;;;;;;;;;;;;;;;
2023/10/05 14:43:20;;;;;;;;;;;;;;;;;;;;;
2023/10/05 14:49:02;;;;;;;7.00;4.00;;;;;;;17.21;60.47;99341.27;225714;1281;23098;-77
2023/10/05 14:54:40;;;;;;;9.20;3.90;;;;;;;17.13;60.86;99337.89;225574;1281;138563;-78
2023/10/05 15:09:21;;;;;;;8.00;4.20;;;;;;;16.81;60.86;99343.73;225512;1281;137583;-78
2023/10/05 15:15:32;;;;;;;7.10;4.10;;;;;;;16.63;61.12;99349.40;224663;1289;137883;-77
2023/10/05 15:21:48;;;;;;;;;;;;;;;;;;;;;
2023/10/05 15:27:40;;;;;;;6.30;4.00;;;;;;;16.34;61.53;99348.81;224667;1289;137842;-77
2023/10/05 15:33:45;;;;;;;9.90;4.80;;;;;;;16.21;61.89;99342.90;225562;1279;138259;-78
2023/10/05 15:39:21;;;;;;;8.50;4.90;;;;;;;16.02;62.19;99342.19;225655;1281;139961;-77
2023/10/05 15:46:00;;;;;;;8.10;4.30;;;;;;;15.78;62.55;99337.48;225507;1281;137916;-77
2023/10/05 15:52:55;;;;;;;;;;;;;;;;;;;;;
2023/10/05 15:59:24;;;;;;;;;;;;;;;;;;;;;
2023/10/05 16:06:03;;;;;;;;;;;;;;;;;;;;;
2023/10/05 16:11:45;;;;;;;;;;;;;;;;;;;;;
2023/10/05 16:18:13;;;;;;;;;;;;;;;;;;;;;
2023/10/05 16:23:53;;;;;;;9.20;5.80;;;;;;;14.56;65.99;99375.56;225567;1281;138483;-78
2023/10/05 16:30:37;;;;;;;8.90;5.00;;;;;;;14.51;66.28;99376.62;225558;1281;138280;-77
2023/10/05 16:37:32;;;;;;;;;;;;;;;;;;;;;
2023/10/05 16:43:02;;;;;;;7.80;4.40;;;;;;;14.34;67.08;99389.89;225717;1281;22617;-77
2023/10/05 16:49:21;;;;;;;;;;;;;;;;;;;;;
2023/10/05 16:55:43;;;;;;;9.40;5.10;;;;;;;14.18;67.25;99389.70;225650;1281;24225;-77
2023/10/05 17:01:34;;;;;;;9.50;5.30;;;;;;;14.07;67.74;99389.45;225673;1281;22607;-77
2023/10/05 17:07:54;;;;;;;;;;;;;;;;;;;;;
2023/10/05 17:14:49;;;;;;;7.40;4.70;;;;;;;13.89;68.39;99401.95;225626;1281;25220;-77
2023/10/05 17:20:34;;;;;;;9.60;5.50;;;;;;;13.80;68.37;99403.24;225585;1281;139107;-77
2023/10/05 17:27:10;;;;;;;;;;;;;;;;;;;;;
2023/10/05 17:34:37;;;;;;;;;;;;;;;;;;;;;
2023/10/05 17:41:27;;;;;;;12.50;5.40;;;;;;;13.57;69.14;99408.08;225640;1281;138378;-76
2023/10/05 17:48:37;;;;;;;7.70;4.60;;;;;;;13.49;69.26;99408.23;225370;1281;140864;-76
2023/10/05 18:02:08;;;;;;;17.20;11.10;;;;;;;13.37;69.72;99411.82;225210;1284;139093;-76
2023/10/05 18:08:09;;;;;;;;;;;;;;;;;;;;;
2023/10/05 18:14:25;;;;;;;;;;;;;;;;;;;;;
2023/10/05 18:20:37;;;;;;;;;;;;;;;;;;;;;
2023/10/05 18:26:49;;;;;;;10.70;6.20;;;;;;;13.23;70.16;99431.08;225732;1281;22561;-77
2023/10/05 18:33:11;;;;;;;;;;;;;;;;;;;;;
2023/10/05 18:38:28;;;;;;;12.70;7.70;;;;;;;13.20;70.49;99438.02;225784;1281;22549;-77
2023/10/05 18:44:21;;;;;;;12.30;7.60;;;;;;;13.16;70.42;99438.95;225655;1281;22572;-78
2023/10/05 18:50:22;;;;;;;13.60;7.50;;;;;;;13.05;70.65;99450.55;225680;1282;22530;-78
2023/10/05 19:03:55;;;;;;;9.80;6.80;;;;;;;12.99;70.98;99456.32;225611;1281;22611;-78
2023/10/05 19:09:39;;;;;;;11.50;7.10;;;;;;;13.01;70.88;99458.06;225386;1281;138268;-78
2023/10/05 19:15:25;;;;;;;;;;;;;;;;;;;;;
2023/10/05 19:35:45;;;;;;;12.60;7.70;;;;;;;12.95;71.30;99477.27;225243;1281;138628;-77
2023/10/05 19:50:08;;;;;;;;;;;;;;;;;;;;;
2023/10/05 19:56:42;;;;;;;;;;;;;;;;;;;;;
2023/10/05 20:02:48;;;;;;;;;;;;;;;;;;;;;
2023/10/05 20:09:44;;;;;;;;;;;;;;;;;;;;;
2023/10/05 20:16:44;;;;;;;12.70;6.70;;;;;;;12.27;72.53;99514.13;224624;1287;138662;-78
2023/10/05 20:23:17;;;;;;;11.70;7.00;;;;;;;12.31;72.78;99521.73;224822;1284;138785;-77
2023/10/05 20:37:46;;;;;;;10.60;6.10;;;;;;;12.42;72.73;99519.90;225338;1284;138341;-76
2023/10/05 20:44:12;;;;;;;11.00;5.90;;;;;;;12.47;72.74;99515.40;224796;1288;138452;-76
2023/10/05 20:50:10;;;;;;;;;;;;;;;;;;;;;
2023/10/05 20:56:59;;;;;;;10.50;4.60;;;;;;;12.58;72.77;99520.13;224916;1288;138367;-78
2023/10/05 21:03:06;;;;;;;17.40;13.20;;;;;;;12.65;72.93;99523.16;225688;1281;25236;-78
2023/10/05 21:09:48;;;;;;;;;;;;;;;;;;;;;
2023/10/05 21:16:47;;;;;;;;;;;;;;;;;;;;;
2023/10/05 21:23:50;;;;;;;8.90;5.00;;;;;;;12.76;72.83;99531.36;225505;1281;138439;-78
2023/10/05 21:30:45;;;;;;;11.20;5.60;;;;;;;12.76;72.81;99529.30;225360;1281;138401;-78
2023/10/05 21:37:13;;;;;;;11.10;5.30;;;;;;;12.70;73.01;99533.34;225722;1270;138646;-77
2023/10/05 21:43:45;;;;;;;;;;;;;;;;;;;;;
2023/10/05 21:50:44;;;;;;;9.00;5.20;;;;;;;12.69;73.36;99538.44;225597;1281;138084;-78
2023/10/05 21:57:00;;;;;;;;;;;;;;;;;;;;;
2023/10/05 22:03:35;;;;;;;;;;;;;;;;;;;;;
2023/10/05 22:10:14;;;;;;;;;;;;;;;;;;;;;
2023/10/05 22:16:28;;;;;;;8.90;4.90;;;;;;;12.68;73.80;99540.46;225699;1281;138243;-78
2023/10/05 22:22:46;;;;;;;10.20;4.40;;;;;;;12.70;73.87;99543.71;225624;1267;138523;-78
2023/10/05 22:30:00;;;;;;;;;;;;;;;;;;;;;
2023/10/05 22:36:29;;;;;;;;;;;;;;;;;;;;;
2023/10/05 22:50:24;;;;;;;;;;;;;;;;;;;;;
2023/10/05 22:57:02;;;;;;;7.80;3.90;;;;;;;12.80;74.21;99565.71;224797;1289;138550;-77
2023/10/05 23:02:55;;;;;;;8.00;3.90;;;;;;;12.85;74.09;99574.39;225643;1281;138490;-77
2023/10/05 23:08:51;;;;;;;;;;;;;;;;;;;;;
2023/10/05 23:15:52;;;;;;;6.00;3.10;;;;;;;12.89;74.15;99579.85;225616;1281;138097;-77
2023/10/05 23:35:43;;;;;;;6.80;3.30;;;;;;;12.80;74.35;99603.02;223568;1287;138657;-77
2023/10/05 23:42:45;;;;;;;7.00;3.10;;;;;;;12.74;74.44;99607.16;224896;1287;138598;-76
2023/10/05 23:49:32;;;;;;;6.10;3.00;;;;;;;12.67;74.86;99615.04;223423;1287;138541;-77
2023/10/05 23:56:21;;;;;;;;;;;;;;;;;;;;;
